createdAt,value
2019-02-12T00:01:12.131Z,6.30
2019-02-12T00:03:39.920Z,4.83
2019-02-12T00:06:07.707Z,4.47
2019-02-12T00:08:35.532Z,5.13
2019-02-12T00:11:03.578Z,9.03
2019-02-12T00:13:31.345Z,5.87
2019-02-12T00:15:59.298Z,4.27
2019-02-12T00:18:27.062Z,5.80
2019-02-12T00:20:54.982Z,6.10
2019-02-12T00:23:22.752Z,6.47
2019-02-12T00:25:50.705Z,6.07
2019-02-12T00:28:18.541Z,5.47
2019-02-12T00:30:46.304Z,4.27
2019-02-12T00:33:14.082Z,3.97
2019-02-12T00:35:41.792Z,5.07
2019-02-12T00:38:09.590Z,3.90
2019-02-12T00:40:37.356Z,3.43
2019-02-12T00:43:05.196Z,6.17
2019-02-12T00:45:33.135Z,5.23
2019-02-12T00:48:00.882Z,3.90
2019-02-12T00:50:28.722Z,4.30
2019-02-12T00:52:56.505Z,6.43
2019-02-12T00:55:24.449Z,6.00
2019-02-12T00:57:52.191Z,6.47
2019-02-12T01:00:20.131Z,3.07
2019-02-12T01:02:47.892Z,6.77
2019-02-12T01:05:15.793Z,7.17
2019-02-12T01:07:43.537Z,6.03
2019-02-12T01:10:11.645Z,4.10
2019-02-12T01:12:39.397Z,4.73
2019-02-12T01:15:09.977Z,5.97
2019-02-12T01:17:37.868Z,2.77
2019-02-12T01:20:08.303Z,6.37
2019-02-12T01:22:36.231Z,2.73
2019-02-12T01:25:04.720Z,4.90
2019-02-12T01:27:32.474Z,3.40
2019-02-12T01:30:00.285Z,5.37
2019-02-12T01:32:28.183Z,3.43
2019-02-12T01:34:56.079Z,5.67
2019-02-12T01:37:23.991Z,3.20
2019-02-12T01:39:51.818Z,4.23
2019-02-12T01:42:19.561Z,4.67
2019-02-12T01:44:47.349Z,3.67
2019-02-12T01:47:15.295Z,2.87
2019-02-12T01:49:43.060Z,5.13
2019-02-12T01:52:10.824Z,6.10
2019-02-12T01:54:38.593Z,3.93
2019-02-12T01:57:06.358Z,6.27
2019-02-12T01:59:34.139Z,6.00
2019-02-12T02:02:02.053Z,2.27
2019-02-12T02:04:29.788Z,4.20
2019-02-12T02:06:57.564Z,6.93
2019-02-12T02:09:25.326Z,6.80
2019-02-12T02:11:53.088Z,4.83
2019-02-12T02:14:20.890Z,5.43
2019-02-12T02:16:48.810Z,6.93
2019-02-12T02:19:16.586Z,2.80
2019-02-12T02:21:44.426Z,8.27
2019-02-12T02:24:12.236Z,5.50
2019-02-12T02:26:39.950Z,4.57
2019-02-12T02:29:07.681Z,4.40
2019-02-12T02:31:35.431Z,3.20
2019-02-12T02:34:03.240Z,6.43
2019-02-12T02:36:31.167Z,3.73
2019-02-12T02:38:59.073Z,5.47
2019-02-12T02:41:26.860Z,3.93
2019-02-12T02:43:54.579Z,4.03
2019-02-12T02:46:22.544Z,4.60
2019-02-12T02:48:50.319Z,2.93
2019-02-12T02:51:18.106Z,2.13
2019-02-12T02:53:46.090Z,4.07
2019-02-12T02:56:13.860Z,2.60
2019-02-12T02:58:41.615Z,5.50
2019-02-12T03:01:09.502Z,3.87
2019-02-12T03:03:37.435Z,3.90
2019-02-12T03:06:05.336Z,2.73
2019-02-12T03:08:33.082Z,4.63
2019-02-12T03:11:00.885Z,3.40
2019-02-12T03:13:28.834Z,2.60
2019-02-12T03:15:56.605Z,2.70
2019-02-12T03:18:24.349Z,4.70
2019-02-12T03:20:52.149Z,6.63
2019-02-12T03:23:20.047Z,4.40
2019-02-12T03:25:47.867Z,4.03
2019-02-12T03:28:15.797Z,2.67
2019-02-12T03:30:43.584Z,2.43
2019-02-12T03:33:11.479Z,2.57
2019-02-12T03:35:39.236Z,3.07
2019-02-12T03:38:07.141Z,3.97
2019-02-12T03:40:34.919Z,3.60
2019-02-12T03:43:02.730Z,5.07
2019-02-12T03:45:30.523Z,5.17
2019-02-12T03:47:58.467Z,3.57
2019-02-12T03:50:26.219Z,3.83
2019-02-12T03:52:54.174Z,2.30
2019-02-12T03:55:21.962Z,3.87
2019-02-12T03:57:50.512Z,2.87
2019-02-12T04:00:18.402Z,4.30
2019-02-12T04:03:01.064Z,3.77
2019-02-12T04:05:28.891Z,4.53
2019-02-12T04:07:56.640Z,3.63
2019-02-12T04:10:24.452Z,1.53
2019-02-12T04:12:52.276Z,7.03
2019-02-12T04:15:20.312Z,3.13
2019-02-12T04:17:48.058Z,3.10
2019-02-12T04:20:15.840Z,3.97
2019-02-12T04:22:43.776Z,5.93
2019-02-12T04:25:11.530Z,2.30
2019-02-12T04:27:39.304Z,3.17
2019-02-12T04:30:07.344Z,4.03
2019-02-12T04:32:35.086Z,2.60
2019-02-12T04:35:03.104Z,1.37
2019-02-12T04:37:31.032Z,6.47
2019-02-12T04:39:58.801Z,3.60
2019-02-12T04:42:26.574Z,3.00
2019-02-12T04:44:54.379Z,3.80
2019-02-12T04:47:22.125Z,3.20
2019-02-12T04:49:50.069Z,2.43
2019-02-12T04:52:17.836Z,3.70
2019-02-12T04:54:45.823Z,5.50
2019-02-12T04:57:13.581Z,2.60
2019-02-12T04:59:41.551Z,2.77
2019-02-12T05:02:09.438Z,8.23
2019-02-12T05:04:37.173Z,3.63
2019-02-12T05:07:04.956Z,4.50
2019-02-12T05:09:34.146Z,4.87
2019-02-12T05:12:04.644Z,2.47
2019-02-12T05:14:32.622Z,3.90
2019-02-12T05:17:00.403Z,3.70
2019-02-12T05:19:28.299Z,2.67
2019-02-12T05:21:56.145Z,3.20
2019-02-12T05:24:24.126Z,3.57
2019-02-12T05:26:51.873Z,5.30
2019-02-12T05:29:19.793Z,5.33
2019-02-12T05:31:47.606Z,4.43
2019-02-12T05:34:15.646Z,2.10
2019-02-12T05:36:43.463Z,2.70
2019-02-12T05:39:11.385Z,6.07
2019-02-12T05:41:39.169Z,2.67
2019-02-12T05:44:06.919Z,5.23
2019-02-12T05:46:34.727Z,4.50
2019-02-12T05:49:02.634Z,1.90
2019-02-12T05:51:30.531Z,3.13
2019-02-12T05:53:58.327Z,6.23
2019-02-12T05:56:26.107Z,2.27
2019-02-12T05:58:53.928Z,3.97
2019-02-12T06:01:21.903Z,2.97
2019-02-12T06:03:49.839Z,2.97
2019-02-12T06:06:17.771Z,2.57
2019-02-12T06:08:45.551Z,4.43
2019-02-12T06:11:13.362Z,7.40
2019-02-12T06:13:41.140Z,2.73
2019-02-12T06:16:08.954Z,3.97
2019-02-12T06:18:36.725Z,4.13
2019-02-12T06:21:04.520Z,6.37
2019-02-12T06:23:32.365Z,6.40
2019-02-12T06:26:00.155Z,4.93
2019-02-12T06:28:27.962Z,6.17
2019-02-12T06:30:55.730Z,2.33
2019-02-12T06:33:23.625Z,5.53
2019-02-12T06:35:51.423Z,4.87
2019-02-12T06:38:19.176Z,2.93
2019-02-12T06:40:47.144Z,4.57
2019-02-12T06:43:14.938Z,7.20
2019-02-12T06:45:42.715Z,4.43
2019-02-12T06:48:10.484Z,3.57
2019-02-12T06:50:38.287Z,5.83
2019-02-12T06:53:12.342Z,5.57
2019-02-12T06:55:35.855Z,8.83
2019-02-12T06:58:03.700Z,4.50
2019-02-12T07:00:31.568Z,3.20
2019-02-12T07:03:16.650Z,5.27
2019-02-12T07:06:27.722Z,4.63
2019-02-12T07:09:24.028Z,4.00
2019-02-12T07:13:00.015Z,5.70
2019-02-12T07:15:42.779Z,2.97
2019-02-12T07:19:01.265Z,4.70
2019-02-12T07:22:19.517Z,4.47
2019-02-12T07:25:44.755Z,4.97
2019-02-12T07:29:09.888Z,4.53
2019-02-12T07:32:21.341Z,3.17
2019-02-12T07:35:35.949Z,2.93
2019-02-12T07:38:50.999Z,3.90
2019-02-12T07:42:33.597Z,9.07
2019-02-12T07:45:47.165Z,5.50
2019-02-12T07:49:20.578Z,6.20
2019-02-12T07:52:19.351Z,4.17
2019-02-12T07:55:54.267Z,7.23
2019-02-12T07:58:46.966Z,6.97
2019-02-12T08:02:36.910Z,7.90
2019-02-12T08:05:48.618Z,5.13
2019-02-12T08:09:13.393Z,7.40
2019-02-12T08:12:03.529Z,8.40
2019-02-12T08:15:44.466Z,3.50
2019-02-12T08:19:08.008Z,5.07
2019-02-12T08:22:45.745Z,8.27
2019-02-12T08:26:16.408Z,5.27
2019-02-12T08:29:26.584Z,6.00
2019-02-12T08:33:01.402Z,7.03
2019-02-12T08:36:17.490Z,4.53
2019-02-12T08:39:06.380Z,4.37
2019-02-12T08:42:41.328Z,5.63
2019-02-12T08:46:18.249Z,3.67
2019-02-12T08:49:17.914Z,4.93
2019-02-12T08:53:05.078Z,5.93
2019-02-12T08:56:34.338Z,3.80
2019-02-12T08:59:58.546Z,3.40
2019-02-12T09:03:25.940Z,5.13
2019-02-12T09:06:21.832Z,4.90
2019-02-12T09:09:34.962Z,4.53
2019-02-12T09:12:49.804Z,6.47
2019-02-12T09:16:23.324Z,4.53
2019-02-12T09:19:36.868Z,6.57
2019-02-12T09:23:01.185Z,5.57
2019-02-12T09:26:08.859Z,5.43
2019-02-12T09:29:24.623Z,5.53
2019-02-12T09:32:49.911Z,6.00
2019-02-12T09:36:19.196Z,6.03
2019-02-12T09:39:31.099Z,5.17
2019-02-12T09:43:11.707Z,4.47
2019-02-12T09:46:08.821Z,5.67
2019-02-12T09:48:50.529Z,3.90
2019-02-12T09:51:36.610Z,8.40
2019-02-12T09:54:40.139Z,4.60
2019-02-12T09:57:57.169Z,4.60
2019-02-12T10:00:46.567Z,5.93
2019-02-12T10:04:26.117Z,5.07
2019-02-12T10:07:21.696Z,4.43
2019-02-12T10:11:01.199Z,7.77
2019-02-12T10:14:15.531Z,3.30
2019-02-12T10:17:19.673Z,8.97
2019-02-12T10:20:07.563Z,5.80
2019-02-12T10:23:19.718Z,4.53
2019-02-12T10:26:01.317Z,4.67
2019-02-12T10:29:17.107Z,3.47
2019-02-12T10:31:44.023Z,5.37
2019-02-12T10:34:11.884Z,6.23
2019-02-12T10:36:39.812Z,5.37
2019-02-12T10:39:14.480Z,4.60
2019-02-12T10:41:42.256Z,7.07
2019-02-12T10:44:10.167Z,6.50
2019-02-12T10:46:37.965Z,6.30
2019-02-12T10:49:05.800Z,4.63
2019-02-12T10:51:33.592Z,6.97
2019-02-12T10:54:01.404Z,5.67
2019-02-12T10:56:29.322Z,5.00
2019-02-12T10:58:57.072Z,5.30
2019-02-12T11:01:24.901Z,7.37
2019-02-12T11:03:52.716Z,5.37
2019-02-12T11:06:20.591Z,5.30
2019-02-12T11:08:48.371Z,6.93
2019-02-12T11:11:16.145Z,5.83
2019-02-12T11:13:43.932Z,7.23
2019-02-12T11:16:13.098Z,8.50
2019-02-12T11:18:40.874Z,5.80
2019-02-12T11:21:11.958Z,6.40
2019-02-12T11:23:38.347Z,11.03
2019-02-12T11:26:06.170Z,4.10
2019-02-12T11:28:33.903Z,4.53
2019-02-12T11:31:01.857Z,6.00
2019-02-12T11:33:29.686Z,5.00
2019-02-12T11:35:57.479Z,4.50
2019-02-12T11:38:25.269Z,4.70
2019-02-12T11:40:53.090Z,3.43
2019-02-12T11:43:20.952Z,5.80
2019-02-12T11:45:48.901Z,2.33
2019-02-12T11:48:17.907Z,4.33
2019-02-12T11:50:45.841Z,4.20
2019-02-12T11:53:13.647Z,3.27
2019-02-12T11:55:41.453Z,6.27
2019-02-12T11:58:09.217Z,4.50
2019-02-12T12:00:43.047Z,6.57
2019-02-12T12:03:10.843Z,4.60
2019-02-12T12:05:38.703Z,4.13
2019-02-12T12:08:06.493Z,6.23
2019-02-12T12:10:34.325Z,5.77
2019-02-12T12:13:02.167Z,5.53
2019-02-12T12:15:29.999Z,8.63
2019-02-12T12:17:57.807Z,4.87
2019-02-12T12:20:25.626Z,4.67
2019-02-12T12:22:53.429Z,6.37
2019-02-12T12:25:21.545Z,7.60
2019-02-12T12:27:49.347Z,5.53
2019-02-12T12:30:18.956Z,5.90
2019-02-12T12:32:46.850Z,4.73
2019-02-12T12:35:14.753Z,6.17
2019-02-12T12:37:42.529Z,4.43
2019-02-12T12:40:10.658Z,9.53
2019-02-12T12:42:38.444Z,5.67
2019-02-12T12:45:07.662Z,5.03
2019-02-12T12:47:35.505Z,6.23
2019-02-12T12:50:03.998Z,4.80
2019-02-12T12:52:31.818Z,5.33
2019-02-12T12:55:00.220Z,6.87
2019-02-12T12:57:28.141Z,4.57
2019-02-12T12:59:55.892Z,3.83
2019-02-12T13:02:23.752Z,6.43
2019-02-12T13:04:51.590Z,5.37
2019-02-12T13:07:19.403Z,3.73
2019-02-12T13:09:47.269Z,3.27
2019-02-12T13:12:15.134Z,4.37
2019-02-12T13:14:42.983Z,5.17
2019-02-12T13:17:11.578Z,5.07
2019-02-12T13:19:39.378Z,5.97
2019-02-12T13:22:07.267Z,5.80
2019-02-12T13:24:35.067Z,5.43
2019-02-12T13:27:02.902Z,5.60
2019-02-12T13:29:30.662Z,5.93
2019-02-12T13:31:58.450Z,5.00
2019-02-12T13:34:26.287Z,5.43
2019-02-12T13:36:54.126Z,4.90
2019-02-12T13:39:24.189Z,7.17
2019-02-12T13:41:52.098Z,7.03
2019-02-12T13:44:20.031Z,5.33
2019-02-12T13:46:47.995Z,5.67
2019-02-12T13:49:17.929Z,7.33
2019-02-12T13:51:45.809Z,3.60
2019-02-12T13:54:13.617Z,7.43
2019-02-12T13:56:41.467Z,5.33
2019-02-12T13:59:09.263Z,6.60
2019-02-12T14:01:37.067Z,8.63
2019-02-12T14:04:04.971Z,5.57
2019-02-12T14:06:33.009Z,6.20
2019-02-12T14:09:00.943Z,4.20
2019-02-12T14:11:28.741Z,4.87
2019-02-12T14:13:56.673Z,2.80
2019-02-12T14:16:24.502Z,7.20
2019-02-12T14:18:52.310Z,5.67
2019-02-12T14:21:20.139Z,2.67
2019-02-12T14:23:47.995Z,4.80
2019-02-12T14:26:15.831Z,7.20
2019-02-12T14:28:43.648Z,5.07
2019-02-12T14:31:11.443Z,7.13
2019-02-12T14:33:41.564Z,4.83
2019-02-12T14:36:09.749Z,7.73
2019-02-12T14:38:37.591Z,4.83
2019-02-12T14:41:10.170Z,4.50
2019-02-12T14:43:38.024Z,5.13
2019-02-12T14:46:05.802Z,6.90
2019-02-12T14:48:33.672Z,7.13
2019-02-12T14:51:01.456Z,4.83
2019-02-12T14:53:29.706Z,5.23
2019-02-12T14:55:57.494Z,4.57
2019-02-12T14:58:26.509Z,6.40
2019-02-12T15:00:54.320Z,4.73
2019-02-12T15:03:24.328Z,6.57
2019-02-12T15:05:52.134Z,3.83
2019-02-12T15:08:19.963Z,4.00
2019-02-12T15:10:47.783Z,4.93
2019-02-12T15:13:15.698Z,5.93
2019-02-12T15:15:43.501Z,5.83
2019-02-12T15:18:11.281Z,5.67
2019-02-12T15:20:39.056Z,5.70
2019-02-12T15:23:07.066Z,7.00
2019-02-12T15:25:41.767Z,3.77
2019-02-12T15:28:04.585Z,4.40
2019-02-12T15:30:32.489Z,3.33
2019-02-12T15:33:00.273Z,4.80
2019-02-12T15:35:28.005Z,5.53
2019-02-12T15:37:55.847Z,5.00
2019-02-12T15:40:23.701Z,4.77
2019-02-12T15:42:51.503Z,4.50
2019-02-12T15:45:19.428Z,3.93
2019-02-12T15:47:47.234Z,6.30
2019-02-12T15:50:15.019Z,4.97
2019-02-12T15:52:42.828Z,3.97
2019-02-12T15:55:11.424Z,4.73
2019-02-12T15:57:40.513Z,4.63
2019-02-12T16:00:12.649Z,4.70
2019-02-12T16:02:40.459Z,6.33
2019-02-12T16:05:10.401Z,5.73
2019-02-12T16:07:38.675Z,7.27
2019-02-12T16:10:10.329Z,4.93
2019-02-12T16:12:38.119Z,4.73
2019-02-12T16:15:09.578Z,6.63
2019-02-12T16:17:39.313Z,5.17
2019-02-12T16:20:07.326Z,3.00
2019-02-12T16:22:35.217Z,5.13
2019-02-12T16:25:03.396Z,6.77
2019-02-12T16:27:31.239Z,5.63
2019-02-12T16:30:01.045Z,4.77
2019-02-12T16:32:29.092Z,6.27
2019-02-12T16:34:57.306Z,8.00
2019-02-12T16:37:25.090Z,5.67
2019-02-12T16:39:52.970Z,5.80
2019-02-12T16:42:20.852Z,5.13
2019-02-12T16:44:48.891Z,6.23
2019-02-12T16:47:16.738Z,6.53
2019-02-12T16:49:44.572Z,6.23
2019-02-12T16:52:20.462Z,7.03
2019-02-12T16:54:42.181Z,4.10
2019-02-12T16:57:10.038Z,4.33
2019-02-12T16:59:37.872Z,5.47
2019-02-12T17:02:06.522Z,6.87
2019-02-12T17:04:34.494Z,7.13
2019-02-12T17:07:02.541Z,8.07
2019-02-12T17:09:30.527Z,7.07
2019-02-12T17:11:58.543Z,5.77
2019-02-12T17:14:26.650Z,6.93
2019-02-12T17:16:55.007Z,6.83
2019-02-12T17:19:22.940Z,10.83
2019-02-12T17:21:50.922Z,6.97
2019-02-12T17:24:18.903Z,7.33
2019-02-12T17:26:47.466Z,5.67
2019-02-12T17:29:15.351Z,6.30
2019-02-12T17:31:43.419Z,7.60
2019-02-12T17:34:11.478Z,7.27
2019-02-12T17:36:39.337Z,6.87
2019-02-12T17:39:07.125Z,5.93
2019-02-12T17:41:34.989Z,7.97
2019-02-12T17:44:03.070Z,5.03
2019-02-12T17:46:30.975Z,5.87
2019-02-12T17:48:59.044Z,5.97
2019-02-12T17:51:26.913Z,7.23
2019-02-12T17:53:55.764Z,8.87
2019-02-12T17:56:25.160Z,6.80
2019-02-12T17:58:53.075Z,3.47
2019-02-12T18:01:20.870Z,8.30
2019-02-12T18:03:48.883Z,10.03
2019-02-12T18:06:16.769Z,10.40
2019-02-12T18:08:47.770Z,7.13
2019-02-12T18:11:15.606Z,6.53
2019-02-12T18:13:43.410Z,7.13
2019-02-12T18:16:11.191Z,8.33
2019-02-12T18:18:39.006Z,4.73
2019-02-12T18:21:06.956Z,8.77
2019-02-12T18:23:34.730Z,5.73
2019-02-12T18:26:02.914Z,12.23
2019-02-12T18:28:30.817Z,5.77
2019-02-12T18:30:58.686Z,4.73
2019-02-12T18:33:26.471Z,4.87
2019-02-12T18:35:54.282Z,5.17
2019-02-12T18:38:22.074Z,6.93
2019-02-12T18:40:49.935Z,4.83
2019-02-12T18:43:17.738Z,10.57
2019-02-12T18:45:45.620Z,6.97
2019-02-12T18:48:13.409Z,5.83
2019-02-12T18:50:41.266Z,6.90
2019-02-12T18:53:09.344Z,7.77
2019-02-12T18:55:37.738Z,7.93
2019-02-12T18:58:05.598Z,6.87
2019-02-12T19:00:35.892Z,7.73
2019-02-12T19:03:03.672Z,8.83
2019-02-12T19:05:31.474Z,7.00
2019-02-12T19:07:59.325Z,8.03
2019-02-12T19:10:27.142Z,5.07
2019-02-12T19:12:54.953Z,5.93
2019-02-12T19:15:22.784Z,5.00
2019-02-12T19:17:56.185Z,5.03
2019-02-12T19:20:24.041Z,7.53
2019-02-12T19:22:51.902Z,7.57
2019-02-12T19:25:19.904Z,6.20
2019-02-12T19:27:47.683Z,7.47
2019-02-12T19:30:16.268Z,6.90
2019-02-12T19:32:44.209Z,6.97
2019-02-12T19:35:12.006Z,6.20
2019-02-12T19:37:39.871Z,7.93
2019-02-12T19:40:07.970Z,5.90
2019-02-12T19:42:35.843Z,7.17
2019-02-12T19:45:03.963Z,7.20
2019-02-12T19:47:31.872Z,5.63
2019-02-12T19:49:59.746Z,5.33
2019-02-12T19:52:27.543Z,6.03
2019-02-12T19:54:55.351Z,7.47
2019-02-12T19:57:23.198Z,8.07
2019-02-12T19:59:51.023Z,10.00
2019-02-12T20:02:18.899Z,7.13
2019-02-12T20:04:46.892Z,5.90
2019-02-12T20:07:14.867Z,8.23
2019-02-12T20:09:42.709Z,4.53
2019-02-12T20:12:10.643Z,10.63
2019-02-12T20:14:38.509Z,7.13
2019-02-12T20:17:06.371Z,5.60
2019-02-12T20:19:34.173Z,6.90
2019-02-12T20:22:03.388Z,8.40
2019-02-12T20:24:31.230Z,4.40
2019-02-12T20:27:06.349Z,7.90
2019-02-12T20:29:28.838Z,8.40
2019-02-12T20:31:56.721Z,8.87
2019-02-12T20:34:24.613Z,8.43
2019-02-12T20:36:52.417Z,11.10
2019-02-12T20:39:20.253Z,10.60
2019-02-12T20:41:48.163Z,8.83
2019-02-12T20:44:16.895Z,12.30
2019-02-12T20:46:44.734Z,7.37
2019-02-12T20:49:12.558Z,8.13
2019-02-12T20:51:40.390Z,7.67
2019-02-12T20:54:08.227Z,10.20
2019-02-12T20:56:36.050Z,8.17
2019-02-12T20:59:04.226Z,9.97
2019-02-12T21:01:32.076Z,7.67
2019-02-12T21:03:59.858Z,8.07
2019-02-12T21:06:27.670Z,8.07
2019-02-12T21:08:55.489Z,6.50
2019-02-12T21:11:23.318Z,8.03
2019-02-12T21:13:51.139Z,8.90
2019-02-12T21:16:18.953Z,7.93
2019-02-12T21:18:46.836Z,9.27
2019-02-12T21:21:14.702Z,8.63
2019-02-12T21:23:42.503Z,10.17
2019-02-12T21:26:10.335Z,6.20
2019-02-12T21:28:38.157Z,5.90
2019-02-12T21:31:05.961Z,10.37
2019-02-12T21:33:34.148Z,9.53
2019-02-12T21:36:02.083Z,9.17
2019-02-12T21:38:29.987Z,15.10
2019-02-12T21:40:57.808Z,10.90
2019-02-12T21:43:25.646Z,9.53
2019-02-12T21:45:53.595Z,10.27
2019-02-12T21:48:21.365Z,9.17
2019-02-12T21:50:49.117Z,11.80
2019-02-12T21:53:16.909Z,15.17
2019-02-12T21:55:44.687Z,8.10
2019-02-12T21:58:12.493Z,11.33
2019-02-12T22:00:40.237Z,8.33
2019-02-12T22:03:08.063Z,9.63
2019-02-12T22:05:35.821Z,10.27
2019-02-12T22:08:03.592Z,11.07
2019-02-12T22:10:31.411Z,11.87
2019-02-12T22:12:59.177Z,12.43
2019-02-12T22:15:26.971Z,10.90
2019-02-12T22:17:54.807Z,11.23
2019-02-12T22:20:22.781Z,9.17
2019-02-12T22:22:50.633Z,11.17
2019-02-12T22:25:18.380Z,12.53
2019-02-12T22:27:46.527Z,12.63
2019-02-12T22:30:16.805Z,11.30
2019-02-12T22:32:44.595Z,10.63
2019-02-12T22:35:12.468Z,10.50
2019-02-12T22:37:40.321Z,11.50
2019-02-12T22:40:08.649Z,12.97
2019-02-12T22:42:36.452Z,12.13
2019-02-12T22:45:05.914Z,10.40
2019-02-12T22:47:33.782Z,11.57
2019-02-12T22:50:01.613Z,9.77
2019-02-12T22:52:29.413Z,13.33
2019-02-12T22:54:57.183Z,9.30
2019-02-12T22:57:25.002Z,10.80
2019-02-12T22:59:52.766Z,8.23
2019-02-12T23:02:20.600Z,9.93
2019-02-12T23:04:48.316Z,10.40
2019-02-12T23:07:16.123Z,8.07
2019-02-12T23:09:44.080Z,8.87
2019-02-12T23:12:11.956Z,10.10
2019-02-12T23:14:39.859Z,9.63
2019-02-12T23:17:07.652Z,10.37
2019-02-12T23:19:35.560Z,10.23
2019-02-12T23:22:03.390Z,10.10
2019-02-12T23:24:31.169Z,10.47
2019-02-12T23:26:59.029Z,8.13
2019-02-12T23:29:26.814Z,11.10
2019-02-12T23:31:54.625Z,9.57
2019-02-12T23:34:22.384Z,9.67
2019-02-12T23:36:50.181Z,11.83
2019-02-12T23:39:18.134Z,10.73
2019-02-12T23:41:45.972Z,12.33
2019-02-12T23:44:13.955Z,12.80
2019-02-12T23:46:41.850Z,13.50
2019-02-12T23:49:09.819Z,10.67
2019-02-12T23:51:37.833Z,9.97
2019-02-12T23:54:05.698Z,12.30
2019-02-12T23:56:33.485Z,13.80
2019-02-12T23:59:01.331Z,11.17
